This is the latest recevied weather packets stored in our database for station/object S56IAR-13. If no packets are shown the sender has not sent any weather packets the latest 10 day(s).
| Time | Temp. | Humidity | Pressure | Rain* | Wind** | Luminosity | Snow |
|---|---|---|---|---|---|---|---|
| 1777991235 | 13.33° C | 80% | 960.4 hPa | 0 mm | - | 51 W/m² | - |
| 1777990505 | 13.33° C | 79% | 960.6 hPa | 0 mm | - | 31 W/m² | - |
| 1777989134 | 14.44° C | 75% | 960.6 hPa | 0 mm | - | 64 W/m² | - |
| 1777986603 | 14.44° C | 74% | 960.9 hPa | 0 mm | - | 88 W/m² | - |
| 1777986305 | 14.44° C | 76% | 960.8 hPa | 0 mm | - | 106 W/m² | - |
| 1777985106 | 14.44° C | 73% | 961 hPa | 0 mm | - | 57 W/m² | - |
| 1777984635 | 14.44° C | 74% | 961.1 hPa | 0 mm | - | 78 W/m² | - |
| 1777981206 | 15° C | 73% | 961.3 hPa | 0 mm | - | 103 W/m² | - |
| 1777980904 | 15° C | 73% | 961.5 hPa | 0 mm | - | 132 W/m² | - |
| 1777979410 | 14.44° C | 74% | 961.6 hPa | 0 mm | - | 105 W/m² | - |
| 1777977005 | 15.56° C | 67% | 961.8 hPa | 0 mm | - | 191 W/m² | - |
| 1777975504 | 15.56° C | 66% | 961.6 hPa | 0 mm | - | 207 W/m² | - |
| 1777974306 | 16.11° C | 64% | 961.4 hPa | 0 mm | - | 163 W/m² | - |
| 1777974004 | 16.11° C | 64% | 961.3 hPa | 0 mm | - | 215 W/m² | - |
| 1777972633 | 16.67° C | 63% | 961.3 hPa | 0 mm | - | 131 W/m² | - |
| 1777972204 | 16.67° C | 61% | 961.1 hPa | 0 mm | - | 122 W/m² | - |
| 1777970103 | 17.22° C | 63% | 960.9 hPa | 0 mm | - | 414 W/m² | - |
| 1777969804 | 17.78° C | 63% | 960.9 hPa | 0 mm | - | 301 W/m² | - |
| 1777969505 | 17.78° C | 62% | 960.8 hPa | 0 mm | - | 403 W/m² | - |
| 1777966504 | 16.67° C | 69% | 960.8 hPa | 0 mm | - | 432 W/m² | - |
| 1777965733 | 15.56° C | 70% | 960.9 hPa | 0 mm | - | 246 W/m² | - |
| 1777963505 | 14.44° C | 72% | 961.1 hPa | 0 mm | - | 163 W/m² | - |
| 1777960204 | 13.33° C | 73% | 961.1 hPa | 0 mm | - | 69 W/m² | - |
| 1777959303 | 13.33° C | 72% | 961 hPa | 0 mm | - | 110 W/m² | - |
| 1777959134 | 13.33° C | 71% | 961.1 hPa | 0 mm | - | 100 W/m² | - |
* Rain latest hour (hover to see other rain measurements)
** Current wind speed in m/s (hover to see current wind gust speed)